sensor_id;sensor_type;location;lat;lon;timestamp;pressure;altitude;pressure_sealevel;temperature;humidity
50977;BME280;36992;48.200;12.418;2023-04-04T00:01:35;97429.09;;;6.25;39.73
50977;BME280;36992;48.200;12.418;2023-04-04T00:04:02;97417.25;;;6.20;39.60
50977;BME280;36992;48.200;12.418;2023-04-04T00:06:28;97414.00;;;6.18;39.82
50977;BME280;36992;48.200;12.418;2023-04-04T00:08:55;97411.56;;;6.17;39.04
50977;BME280;36992;48.200;12.418;2023-04-04T00:11:23;97410.78;;;6.16;39.23
50977;BME280;36992;48.200;12.418;2023-04-04T00:13:52;97395.22;;;6.13;39.15
50977;BME280;36992;48.200;12.418;2023-04-04T00:16:18;97406.41;;;6.10;39.52
50977;BME280;36992;48.200;12.418;2023-04-04T00:18:46;97407.72;;;6.07;40.71
50977;BME280;36992;48.200;12.418;2023-04-04T00:21:13;97405.28;;;6.06;40.42
50977;BME280;36992;48.200;12.418;2023-04-04T00:23:39;97399.09;;;6.05;40.10
50977;BME280;36992;48.200;12.418;2023-04-04T00:26:06;97400.72;;;6.06;40.96
50977;BME280;36992;48.200;12.418;2023-04-04T00:28:34;97400.47;;;6.08;39.97
50977;BME280;36992;48.200;12.418;2023-04-04T00:31:00;97395.38;;;6.06;40.07
50977;BME280;36992;48.200;12.418;2023-04-04T00:33:27;97400.72;;;6.06;40.47
50977;BME280;36992;48.200;12.418;2023-04-04T00:35:53;97398.03;;;6.06;39.82
50977;BME280;36992;48.200;12.418;2023-04-04T00:38:20;97392.13;;;6.04;40.23
50977;BME280;36992;48.200;12.418;2023-04-04T00:40:48;97388.41;;;6.05;40.51
50977;BME280;36992;48.200;12.418;2023-04-04T00:43:16;97391.34;;;6.04;40.42
50977;BME280;36992;48.200;12.418;2023-04-04T00:45:45;97391.34;;;6.04;40.08
50977;BME280;36992;48.200;12.418;2023-04-04T00:48:12;97391.78;;;6.01;39.45
50977;BME280;36992;48.200;12.418;2023-04-04T00:50:38;97386.44;;;6.01;40.66
50977;BME280;36992;48.200;12.418;2023-04-04T00:53:05;97377.34;;;6.02;41.20
50977;BME280;36992;48.200;12.418;2023-04-04T00:55:31;97387.25;;;6.01;40.22
50977;BME280;36992;48.200;12.418;2023-04-04T00:57:59;97384.59;;;6.01;40.77
50977;BME280;36992;48.200;12.418;2023-04-04T01:00:26;97377.34;;;6.02;40.71
50977;BME280;36992;48.200;12.418;2023-04-04T01:02:54;97377.16;;;6.03;40.85
50977;BME280;36992;48.200;12.418;2023-04-04T01:05:21;97372.88;;;6.02;39.86
50977;BME280;36992;48.200;12.418;2023-04-04T01:07:47;97368.78;;;6.00;39.98
50977;BME280;36992;48.200;12.418;2023-04-04T01:10:14;97369.03;;;5.98;41.29
50977;BME280;36992;48.200;12.418;2023-04-04T01:12:41;97363.13;;;5.96;41.01
50977;BME280;36992;48.200;12.418;2023-04-04T01:15:09;97367.63;;;5.96;41.04
50977;BME280;36992;48.200;12.418;2023-04-04T01:17:36;97365.22;;;5.94;40.55
50977;BME280;36992;48.200;12.418;2023-04-04T01:20:06;97363.13;;;5.96;40.02
50977;BME280;36992;48.200;12.418;2023-04-04T01:22:37;97359.31;;;5.92;40.33
50977;BME280;36992;48.200;12.418;2023-04-04T01:25:06;97361.97;;;5.92;40.66
50977;BME280;36992;48.200;12.418;2023-04-04T01:27:34;97357.69;;;5.91;40.46
50977;BME280;36992;48.200;12.418;2023-04-04T01:30:01;97355.50;;;5.88;40.39
50977;BME280;36992;48.200;12.418;2023-04-04T01:32:38;97352.56;;;5.89;40.79
50977;BME280;36992;48.200;12.418;2023-04-04T01:35:14;97353.88;;;5.87;40.66
50977;BME280;36992;48.200;12.418;2023-04-04T01:37:49;97348.78;;;5.85;39.76
50977;BME280;36992;48.200;12.418;2023-04-04T01:40:24;97351.13;;;5.81;39.72
50977;BME280;36992;48.200;12.418;2023-04-04T01:42:54;97350.00;;;5.77;40.00
50977;BME280;36992;48.200;12.418;2023-04-04T01:45:22;97340.31;;;5.71;39.95
50977;BME280;36992;48.200;12.418;2023-04-04T01:47:48;97339.72;;;5.69;39.97
50977;BME280;36992;48.200;12.418;2023-04-04T01:50:16;97338.59;;;5.65;40.48
50977;BME280;36992;48.200;12.418;2023-04-04T01:52:42;97344.44;;;5.62;40.39
50977;BME280;36992;48.200;12.418;2023-04-04T01:55:09;97344.69;;;5.60;40.58
50977;BME280;36992;48.200;12.418;2023-04-04T01:57:35;97343.88;;;5.60;40.81
50977;BME280;36992;48.200;12.418;2023-04-04T02:00:04;97340.13;;;5.61;40.52
50977;BME280;36992;48.200;12.418;2023-04-04T02:02:31;97346.00;;;5.58;40.66
50977;BME280;36992;48.200;12.418;2023-04-04T02:04:58;97347.28;;;5.55;40.74
50977;BME280;36992;48.200;12.418;2023-04-04T02:07:24;97342.16;;;5.53;40.64
50977;BME280;36992;48.200;12.418;2023-04-04T02:09:51;97344.03;;;5.53;41.57
50977;BME280;36992;48.200;12.418;2023-04-04T02:12:17;97339.72;;;5.52;40.37
50977;BME280;36992;48.200;12.418;2023-04-04T02:14:44;97345.31;;;5.50;40.93
50977;BME280;36992;48.200;12.418;2023-04-04T02:17:12;97339.97;;;5.50;41.28
50977;BME280;36992;48.200;12.418;2023-04-04T02:19:38;97331.41;;;5.48;40.95
50977;BME280;36992;48.200;12.418;2023-04-04T02:22:05;97335.13;;;5.47;41.82
50977;BME280;36992;48.200;12.418;2023-04-04T02:24:31;97336.75;;;5.48;41.48
50977;BME280;36992;48.200;12.418;2023-04-04T02:26:58;97331.91;;;5.45;41.12
50977;BME280;36992;48.200;12.418;2023-04-04T02:29:24;97335.59;;;5.44;41.08
50977;BME280;36992;48.200;12.418;2023-04-04T02:31:52;97337.72;;;5.42;40.62
50977;BME280;36992;48.200;12.418;2023-04-04T02:34:20;97339.31;;;5.43;41.01
50977;BME280;36992;48.200;12.418;2023-04-04T02:36:46;97335.53;;;5.39;40.73
50977;BME280;36992;48.200;12.418;2023-04-04T02:39:13;97335.47;;;5.34;40.25
50977;BME280;36992;48.200;12.418;2023-04-04T02:41:39;97329.78;;;5.30;40.39
50977;BME280;36992;48.200;12.418;2023-04-04T02:44:06;97330.25;;;5.27;40.79
50977;BME280;36992;48.200;12.418;2023-04-04T02:46:34;97324.59;;;5.23;39.90
50977;BME280;36992;48.200;12.418;2023-04-04T02:49:00;97328.81;;;5.19;41.32
50977;BME280;36992;48.200;12.418;2023-04-04T02:51:29;97332.53;;;5.18;41.70
50977;BME280;36992;48.200;12.418;2023-04-04T02:53:57;97325.00;;;5.15;41.32
50977;BME280;36992;48.200;12.418;2023-04-04T02:56:24;97339.97;;;5.16;42.68
50977;BME280;36992;48.200;12.418;2023-04-04T02:58:50;97331.97;;;5.16;42.04
50977;BME280;36992;48.200;12.418;2023-04-04T03:01:17;97335.44;;;5.17;41.51
50977;BME280;36992;48.200;12.418;2023-04-04T03:03:43;97340.78;;;5.17;41.77
50977;BME280;36992;48.200;12.418;2023-04-04T03:06:10;97333.00;;;5.15;41.50
50977;BME280;36992;48.200;12.418;2023-04-04T03:08:40;97330.91;;;5.17;41.45
50977;BME280;36992;48.200;12.418;2023-04-04T03:11:06;97331.41;;;5.14;41.66
50977;BME280;36992;48.200;12.418;2023-04-04T03:13:33;97329.78;;;5.13;41.46
50977;BME280;36992;48.200;12.418;2023-04-04T03:16:00;97328.13;;;5.12;41.25
50977;BME280;36992;48.200;12.418;2023-04-04T03:18:28;97328.13;;;5.12;41.60
50977;BME280;36992;48.200;12.418;2023-04-04T03:20:55;97331.88;;;5.11;41.79
50977;BME280;36992;48.200;12.418;2023-04-04T03:23:21;97330.25;;;5.10;41.86
50977;BME280;36992;48.200;12.418;2023-04-04T03:25:49;97324.91;;;5.10;41.89
50977;BME280;36992;48.200;12.418;2023-04-04T03:28:16;97331.31;;;5.09;42.17
50977;BME280;36992;48.200;12.418;2023-04-04T03:30:42;97323.75;;;5.06;41.73
50977;BME280;36992;48.200;12.418;2023-04-04T03:33:09;97327.50;;;5.05;41.95
50977;BME280;36992;48.200;12.418;2023-04-04T03:35:36;97329.09;;;5.06;42.60
50977;BME280;36992;48.200;12.418;2023-04-04T03:38:03;97325.88;;;5.04;42.88
50977;BME280;36992;48.200;12.418;2023-04-04T03:40:30;97325.88;;;5.04;42.39
50977;BME280;36992;48.200;12.418;2023-04-04T03:42:58;97327.72;;;5.03;41.99
50977;BME280;36992;48.200;12.418;2023-04-04T03:45:26;97333.06;;;5.03;41.86
50977;BME280;36992;48.200;12.418;2023-04-04T03:47:53;97335.72;;;5.03;41.66
50977;BME280;36992;48.200;12.418;2023-04-04T03:50:19;97330.41;;;5.03;42.09
50977;BME280;36992;48.200;12.418;2023-04-04T03:52:46;97334.13;;;5.02;41.68
50977;BME280;36992;48.200;12.418;2023-04-04T03:55:13;97333.56;;;5.00;41.68
50977;BME280;36992;48.200;12.418;2023-04-04T03:57:40;97340.75;;;4.99;41.85
50977;BME280;36992;48.200;12.418;2023-04-04T04:00:09;97338.06;;;4.99;41.47
50977;BME280;36992;48.200;12.418;2023-04-04T04:02:36;97331.84;;;4.94;42.07
50977;BME280;36992;48.200;12.418;2023-04-04T04:05:03;97333.38;;;4.90;41.76
50977;BME280;36992;48.200;12.418;2023-04-04T04:07:29;97342.66;;;4.87;42.39
50977;BME280;36992;48.200;12.418;2023-04-04T04:09:56;97341.53;;;4.83;41.71
50977;BME280;36992;48.200;12.418;2023-04-04T04:12:22;97338.28;;;4.81;41.51
50977;BME280;36992;48.200;12.418;2023-04-04T04:14:50;97344.91;;;4.78;41.53
50977;BME280;36992;48.200;12.418;2023-04-04T04:17:18;97339.56;;;4.78;41.42
50977;BME280;36992;48.200;12.418;2023-04-04T04:19:44;97343.78;;;4.74;41.36
50977;BME280;36992;48.200;12.418;2023-04-04T04:22:11;97346.69;;;4.72;41.26
50977;BME280;36992;48.200;12.418;2023-04-04T04:24:37;97348.78;;;4.70;41.01
50977;BME280;36992;48.200;12.418;2023-04-04T04:27:04;97345.53;;;4.68;42.03
50977;BME280;36992;48.200;12.418;2023-04-04T04:29:31;97341.47;;;4.66;42.00
50977;BME280;36992;48.200;12.418;2023-04-04T04:31:57;97341.97;;;4.63;41.77
50977;BME280;36992;48.200;12.418;2023-04-04T04:34:26;97344.41;;;4.64;41.87
50977;BME280;36992;48.200;12.418;2023-04-04T04:36:53;97348.59;;;4.60;41.52
50977;BME280;36992;48.200;12.418;2023-04-04T04:39:19;97348.03;;;4.58;41.58
50977;BME280;36992;48.200;12.418;2023-04-04T04:41:46;97349.06;;;4.57;41.43
50977;BME280;36992;48.200;12.418;2023-04-04T04:44:12;97351.16;;;4.55;41.64
50977;BME280;36992;48.200;12.418;2023-04-04T04:46:39;97349.75;;;4.52;41.77
50977;BME280;36992;48.200;12.418;2023-04-04T04:49:05;97351.03;;;4.50;41.69
50977;BME280;36992;48.200;12.418;2023-04-04T04:51:33;97349.44;;;4.49;41.76
50977;BME280;36992;48.200;12.418;2023-04-04T04:54:00;97350.97;;;4.44;41.19
50977;BME280;36992;48.200;12.418;2023-04-04T04:56:26;97354.91;;;4.42;42.08
50977;BME280;36992;48.200;12.418;2023-04-04T04:58:53;97357.25;;;4.38;41.75
50977;BME280;36992;48.200;12.418;2023-04-04T05:01:19;97356.66;;;4.36;42.85
50977;BME280;36992;48.200;12.418;2023-04-04T05:03:46;97363.88;;;4.36;42.72
50977;BME280;36992;48.200;12.418;2023-04-04T05:06:12;97362.00;;;4.36;42.80
50977;BME280;36992;48.200;12.418;2023-04-04T05:08:40;97367.91;;;4.38;42.97
50977;BME280;36992;48.200;12.418;2023-04-04T05:11:07;97371.38;;;4.39;42.98
50977;BME280;36992;48.200;12.418;2023-04-04T05:13:33;97367.66;;;4.40;42.41
50977;BME280;36992;48.200;12.418;2023-04-04T05:16:00;97371.16;;;4.40;42.34
50977;BME280;36992;48.200;12.418;2023-04-04T05:18:27;97376.00;;;4.43;43.25
50977;BME280;36992;48.200;12.418;2023-04-04T05:20:54;97370.66;;;4.43;43.07
50977;BME280;36992;48.200;12.418;2023-04-04T05:23:22;97368.59;;;4.45;42.67
50977;BME280;36992;48.200;12.418;2023-04-04T05:25:51;97366.50;;;4.48;42.65
50977;BME280;36992;48.200;12.418;2023-04-04T05:28:17;97372.06;;;4.46;42.30
50977;BME280;36992;48.200;12.418;2023-04-04T05:30:44;97369.38;;;4.46;42.30
50977;BME280;36992;48.200;12.418;2023-04-04T05:33:10;97373.94;;;4.45;42.25
50977;BME280;36992;48.200;12.418;2023-04-04T05:35:37;97372.31;;;4.44;42.58
50977;BME280;36992;48.200;12.418;2023-04-04T05:38:05;97369.88;;;4.43;42.55
50977;BME280;36992;48.200;12.418;2023-04-04T05:40:31;97376.00;;;4.43;42.43
50977;BME280;36992;48.200;12.418;2023-04-04T05:42:59;97373.94;;;4.45;42.44
50977;BME280;36992;48.200;12.418;2023-04-04T05:45:28;97378.66;;;4.43;41.50
50977;BME280;36992;48.200;12.418;2023-04-04T05:47:55;97372.78;;;4.41;41.79
50977;BME280;36992;48.200;12.418;2023-04-04T05:50:21;97374.88;;;4.39;42.16
50977;BME280;36992;48.200;12.418;2023-04-04T05:52:48;97374.03;;;4.39;41.89
50977;BME280;36992;48.200;12.418;2023-04-04T05:55:14;97377.78;;;4.38;42.72
50977;BME280;36992;48.200;12.418;2023-04-04T05:57:46;97377.53;;;4.39;42.64
50977;BME280;36992;48.200;12.418;2023-04-04T06:00:16;97381.81;;;4.40;42.12
50977;BME280;36992;48.200;12.418;2023-04-04T06:02:43;97379.38;;;4.39;42.50
50977;BME280;36992;48.200;12.418;2023-04-04T06:05:09;97383.94;;;4.38;41.92
50977;BME280;36992;48.200;12.418;2023-04-04T06:07:36;97380.22;;;4.39;41.75
50977;BME280;36992;48.200;12.418;2023-04-04T06:10:03;97382.06;;;4.39;42.27
50977;BME280;36992;48.200;12.418;2023-04-04T06:12:30;97374.38;;;4.42;41.63
50977;BME280;36992;48.200;12.418;2023-04-04T06:14:56;97376.50;;;4.40;41.45
50977;BME280;36992;48.200;12.418;2023-04-04T06:17:24;97376.50;;;4.40;42.24
50977;BME280;36992;48.200;12.418;2023-04-04T06:19:51;97380.44;;;4.38;41.94
50977;BME280;36992;48.200;12.418;2023-04-04T06:22:19;97382.88;;;4.39;42.05
50977;BME280;36992;48.200;12.418;2023-04-04T06:24:46;97369.53;;;4.39;41.43
50977;BME280;36992;48.200;12.418;2023-04-04T06:27:12;97378.94;;;4.42;41.84
50977;BME280;36992;48.200;12.418;2023-04-04T06:29:39;97377.88;;;4.43;41.63
50977;BME280;36992;48.200;12.418;2023-04-04T06:32:05;97376.00;;;4.43;41.57
50977;BME280;36992;48.200;12.418;2023-04-04T06:34:33;97373.66;;;4.47;41.32
50977;BME280;36992;48.200;12.418;2023-04-04T06:37:00;97376.34;;;4.47;41.34
50977;BME280;36992;48.200;12.418;2023-04-04T06:39:26;97372.38;;;4.50;41.37
50977;BME280;36992;48.200;12.418;2023-04-04T06:41:54;97369.25;;;4.53;41.06
50977;BME280;36992;48.200;12.418;2023-04-04T06:44:20;97373.31;;;4.55;41.13
50977;BME280;36992;48.200;12.418;2023-04-04T06:46:47;97365.88;;;4.57;40.40
50977;BME280;36992;48.200;12.418;2023-04-04T06:49:13;97368.31;;;4.59;39.99
50977;BME280;36992;48.200;12.418;2023-04-04T06:51:41;97370.50;;;4.62;40.38
50977;BME280;36992;48.200;12.418;2023-04-04T06:54:08;97365.75;;;4.64;40.76
50977;BME280;36992;48.200;12.418;2023-04-04T06:56:35;97369.00;;;4.66;40.51
50977;BME280;36992;48.200;12.418;2023-04-04T06:59:02;97365.25;;;4.67;40.53
50977;BME280;36992;48.200;12.418;2023-04-04T07:01:28;97366.88;;;4.68;39.63
50977;BME280;36992;48.200;12.418;2023-04-04T07:03:58;97373.38;;;4.72;39.94
50977;BME280;36992;48.200;12.418;2023-04-04T07:06:24;97366.97;;;4.73;39.35
50977;BME280;36992;48.200;12.418;2023-04-04T07:08:55;97367.66;;;4.81;38.96
50977;BME280;36992;48.200;12.418;2023-04-04T07:11:21;97367.41;;;4.82;39.00
50977;BME280;36992;48.200;12.418;2023-04-04T07:13:48;97369.03;;;4.83;38.92
50977;BME280;36992;48.200;12.418;2023-04-04T07:16:15;97372.03;;;4.87;38.81
50977;BME280;36992;48.200;12.418;2023-04-04T07:18:41;97365.19;;;4.91;37.96
50977;BME280;36992;48.200;12.418;2023-04-04T07:21:08;97363.34;;;4.92;38.41
50977;BME280;36992;48.200;12.418;2023-04-04T07:23:35;97367.94;;;4.96;37.48
50977;BME280;36992;48.200;12.418;2023-04-04T07:26:03;97371.50;;;5.02;37.66
50977;BME280;36992;48.200;12.418;2023-04-04T07:28:29;97359.53;;;5.05;38.03
50977;BME280;36992;48.200;12.418;2023-04-04T07:30:58;97362.31;;;5.10;37.08
50977;BME280;36992;48.200;12.418;2023-04-04T07:33:25;97356.13;;;5.09;36.87
50977;BME280;36992;48.200;12.418;2023-04-04T07:35:51;97354.06;;;5.11;37.57
50977;BME280;36992;48.200;12.418;2023-04-04T07:38:18;97359.72;;;5.15;37.13
50977;BME280;36992;48.200;12.418;2023-04-04T07:40:47;97354.22;;;5.22;37.31
50977;BME280;36992;48.200;12.418;2023-04-04T07:43:15;97353.50;;;5.26;36.35
50977;BME280;36992;48.200;12.418;2023-04-04T07:45:42;97349.78;;;5.28;36.72
50977;BME280;36992;48.200;12.418;2023-04-04T07:48:08;97351.50;;;5.34;35.36
50977;BME280;36992;48.200;12.418;2023-04-04T07:50:35;97363.28;;;5.38;35.88
50977;BME280;36992;48.200;12.418;2023-04-04T07:53:01;97353.75;;;5.42;35.08
50977;BME280;36992;48.200;12.418;2023-04-04T07:55:28;97358.94;;;5.49;35.24
50977;BME280;36992;48.200;12.418;2023-04-04T07:57:54;97363.00;;;5.51;35.71
50977;BME280;36992;48.200;12.418;2023-04-04T08:00:24;97363.63;;;5.59;35.21
50977;BME280;36992;48.200;12.418;2023-04-04T08:02:51;97362.06;;;5.63;34.86
50977;BME280;36992;48.200;12.418;2023-04-04T08:05:18;97369.63;;;5.66;33.97
50977;BME280;36992;48.200;12.418;2023-04-04T08:07:45;97360.06;;;5.70;34.65
50977;BME280;36992;48.200;12.418;2023-04-04T08:10:11;97368.16;;;5.75;34.57
50977;BME280;36992;48.200;12.418;2023-04-04T08:12:41;97372.50;;;5.81;34.25
50977;BME280;36992;48.200;12.418;2023-04-04T08:15:09;97353.88;;;5.87;34.97
50977;BME280;36992;48.200;12.418;2023-04-04T08:17:37;97360.13;;;5.92;33.27
50977;BME280;36992;48.200;12.418;2023-04-04T08:20:04;97364.50;;;5.99;34.99
50977;BME280;36992;48.200;12.418;2023-04-04T08:22:31;97360.28;;;6.03;34.06
50977;BME280;36992;48.200;12.418;2023-04-04T08:24:58;97358.97;;;6.05;34.08
50977;BME280;36992;48.200;12.418;2023-04-04T08:27:25;97366.53;;;6.09;34.66
50977;BME280;36992;48.200;12.418;2023-04-04T08:29:52;97371.38;;;6.12;35.46
50977;BME280;36992;48.200;12.418;2023-04-04T08:32:19;97372.97;;;6.13;34.13
50977;BME280;36992;48.200;12.418;2023-04-04T08:34:48;97364.47;;;6.16;34.44
50977;BME280;36992;48.200;12.418;2023-04-04T08:37:15;97363.94;;;6.14;34.61
50977;BME280;36992;48.200;12.418;2023-04-04T08:39:42;97363.94;;;6.14;35.63
50977;BME280;36992;48.200;12.418;2023-04-04T08:42:08;97365.53;;;6.15;35.23
50977;BME280;36992;48.200;12.418;2023-04-04T08:44:37;97363.41;;;6.17;33.52
50977;BME280;36992;48.200;12.418;2023-04-04T08:47:06;97365.84;;;6.18;34.65
50977;BME280;36992;48.200;12.418;2023-04-04T08:49:37;97372.81;;;6.19;34.73
50977;BME280;36992;48.200;12.418;2023-04-04T08:52:05;97369.66;;;6.23;34.55
50977;BME280;36992;48.200;12.418;2023-04-04T08:54:35;97374.19;;;6.22;33.45
50977;BME280;36992;48.200;12.418;2023-04-04T08:57:04;97375.81;;;6.23;34.41
50977;BME280;36992;48.200;12.418;2023-04-04T08:59:30;97373.13;;;6.23;33.99
50977;BME280;36992;48.200;12.418;2023-04-04T09:02:04;97369.97;;;6.26;34.57
50977;BME280;36992;48.200;12.418;2023-04-04T09:04:40;97376.34;;;6.25;32.98
50977;BME280;36992;48.200;12.418;2023-04-04T09:07:09;97369.97;;;6.26;33.72
50977;BME280;36992;48.200;12.418;2023-04-04T09:09:38;97374.75;;;6.24;34.39
50977;BME280;36992;48.200;12.418;2023-04-04T09:12:05;97361.94;;;6.26;35.04
50977;BME280;36992;48.200;12.418;2023-04-04T09:14:33;97372.13;;;6.29;35.74
50977;BME280;36992;48.200;12.418;2023-04-04T09:17:03;97371.00;;;6.25;34.34
50977;BME280;36992;48.200;12.418;2023-04-04T09:19:29;97370.47;;;6.23;34.01
50977;BME280;36992;48.200;12.418;2023-04-04T09:21:56;97371.00;;;6.25;35.08
50977;BME280;36992;48.200;12.418;2023-04-04T09:24:36;97379.63;;;6.27;35.39
50977;BME280;36992;48.200;12.418;2023-04-04T09:27:03;97378.00;;;6.26;35.75
50977;BME280;36992;48.200;12.418;2023-04-04T09:29:30;97378.00;;;6.26;36.19
50977;BME280;36992;48.200;12.418;2023-04-04T09:31:58;97374.81;;;6.29;36.13
50977;BME280;36992;48.200;12.418;2023-04-04T09:34:27;97374.34;;;6.32;35.75
50977;BME280;36992;48.200;12.418;2023-04-04T09:36:54;97377.00;;;6.32;34.78
50977;BME280;36992;48.200;12.418;2023-04-04T09:39:21;97371.16;;;6.36;34.53
50977;BME280;36992;48.200;12.418;2023-04-04T09:41:50;97381.38;;;6.39;34.61
50977;BME280;36992;48.200;12.418;2023-04-04T09:44:16;97374.66;;;6.36;34.19
50977;BME280;36992;48.200;12.418;2023-04-04T09:46:43;97369.28;;;6.36;35.31
50977;BME280;36992;48.200;12.418;2023-04-04T09:49:10;97374.88;;;6.34;34.86
50977;BME280;36992;48.200;12.418;2023-04-04T09:51:37;97372.75;;;6.37;33.91
50977;BME280;36992;48.200;12.418;2023-04-04T09:54:08;97376.03;;;6.39;34.26
50977;BME280;36992;48.200;12.418;2023-04-04T09:56:35;97374.66;;;6.36;34.19
50977;BME280;36992;48.200;12.418;2023-04-04T09:59:05;97384.28;;;6.37;35.07
50977;BME280;36992;48.200;12.418;2023-04-04T10:01:32;97377.31;;;6.36;35.65
50977;BME280;36992;48.200;12.418;2023-04-04T10:03:59;97377.88;;;6.38;34.23
50977;BME280;36992;48.200;12.418;2023-04-04T10:06:26;97377.63;;;6.40;34.73
50977;BME280;36992;48.200;12.418;2023-04-04T10:08:52;97380.88;;;6.42;34.05
50977;BME280;36992;48.200;12.418;2023-04-04T10:11:27;97370.22;;;6.47;35.24
50977;BME280;36992;48.200;12.418;2023-04-04T10:13:55;97378.75;;;6.44;33.49
50977;BME280;36992;48.200;12.418;2023-04-04T10:16:24;97376.13;;;6.49;34.36
50977;BME280;36992;48.200;12.418;2023-04-04T10:18:51;97363.31;;;6.51;33.92
50977;BME280;36992;48.200;12.418;2023-04-04T10:21:18;97368.47;;;6.58;33.22
50977;BME280;36992;48.200;12.418;2023-04-04T10:23:45;97371.47;;;6.61;32.91
50977;BME280;36992;48.200;12.418;2023-04-04T10:26:12;97372.59;;;6.66;33.63
50977;BME280;36992;48.200;12.418;2023-04-04T10:28:39;97378.19;;;6.64;31.76
50977;BME280;36992;48.200;12.418;2023-04-04T10:31:14;97373.13;;;6.68;32.48
50977;BME280;36992;48.200;12.418;2023-04-04T10:33:48;97371.59;;;6.72;32.82
50977;BME280;36992;48.200;12.418;2023-04-04T10:36:20;97369.22;;;6.75;33.43
50977;BME280;36992;48.200;12.418;2023-04-04T10:38:54;97367.91;;;6.78;32.59
50977;BME280;36992;48.200;12.418;2023-04-04T10:41:24;97369.50;;;6.79;32.77
50977;BME280;36992;48.200;12.418;2023-04-04T10:43:55;97367.38;;;6.81;32.87
50977;BME280;36992;48.200;12.418;2023-04-04T10:46:25;97356.66;;;6.81;32.85
50977;BME280;36992;48.200;12.418;2023-04-04T10:48:56;97366.91;;;6.84;31.42
50977;BME280;36992;48.200;12.418;2023-04-04T10:51:25;97355.38;;;6.84;31.87
50977;BME280;36992;48.200;12.418;2023-04-04T10:53:52;97359.41;;;6.86;30.38
50977;BME280;36992;48.200;12.418;2023-04-04T10:56:20;97354.63;;;6.88;31.75
50977;BME280;36992;48.200;12.418;2023-04-04T10:58:48;97357.09;;;6.95;32.97
50977;BME280;36992;48.200;12.418;2023-04-04T11:01:14;97363.88;;;7.03;32.10
50977;BME280;36992;48.200;12.418;2023-04-04T11:04:18;97353.28;;;7.19;32.53
50977;BME280;36992;48.200;12.418;2023-04-04T11:07:10;97356.38;;;7.33;32.16
50977;BME280;36992;48.200;12.418;2023-04-04T11:10:02;97356.22;;;7.50;33.16
50977;BME280;36992;48.200;12.418;2023-04-04T11:12:42;97354.16;;;7.57;31.76
50977;BME280;36992;48.200;12.418;2023-04-04T11:15:10;97358.75;;;7.62;29.81
50977;BME280;36992;48.200;12.418;2023-04-04T11:18:04;97354.25;;;7.73;32.44
50977;BME280;36992;48.200;12.418;2023-04-04T11:20:33;97352.66;;;7.72;30.50
50977;BME280;36992;48.200;12.418;2023-04-04T11:23:05;97347.25;;;7.66;30.21
50977;BME280;36992;48.200;12.418;2023-04-04T11:25:34;97342.97;;;7.65;30.28
50977;BME280;36992;48.200;12.418;2023-04-04T11:28:11;97348.06;;;7.67;30.95
50977;BME280;36992;48.200;12.418;2023-04-04T11:30:41;97345.59;;;7.60;29.29
50977;BME280;36992;48.200;12.418;2023-04-04T11:33:12;97346.06;;;7.52;28.45
50977;BME280;36992;48.200;12.418;2023-04-04T11:35:45;97340.44;;;7.48;29.11
50977;BME280;36992;48.200;12.418;2023-04-04T11:38:17;97337.41;;;7.39;29.20
50977;BME280;36992;48.200;12.418;2023-04-04T11:40:52;97333.91;;;7.39;30.58
50977;BME280;36992;48.200;12.418;2023-04-04T11:43:19;97342.47;;;7.36;30.13
50977;BME280;36992;48.200;12.418;2023-04-04T11:45:46;97328.25;;;7.35;29.30
50977;BME280;36992;48.200;12.418;2023-04-04T11:48:15;97335.50;;;7.40;29.69
50977;BME280;36992;48.200;12.418;2023-04-04T11:50:45;97329.13;;;7.46;30.98
50977;BME280;36992;48.200;12.418;2023-04-04T11:53:15;97336.91;;;7.48;30.20
50977;BME280;36992;48.200;12.418;2023-04-04T11:55:43;97333.50;;;7.58;31.42
50977;BME280;36992;48.200;12.418;2023-04-04T11:58:13;97326.63;;;7.67;29.08
50977;BME280;36992;48.200;12.418;2023-04-04T12:00:40;97330.16;;;7.78;29.54
50977;BME280;36992;48.200;12.418;2023-04-04T12:03:09;97318.91;;;7.81;30.01
50977;BME280;36992;48.200;12.418;2023-04-04T12:05:37;97318.69;;;7.88;29.75
50977;BME280;36992;48.200;12.418;2023-04-04T12:08:08;97314.72;;;7.95;30.50
50977;BME280;36992;48.200;12.418;2023-04-04T12:10:36;97310.97;;;7.96;29.88
50977;BME280;36992;48.200;12.418;2023-04-04T12:13:05;97309.88;;;7.97;30.09
50977;BME280;36992;48.200;12.418;2023-04-04T12:15:33;97317.41;;;7.95;29.14
50977;BME280;36992;48.200;12.418;2023-04-04T12:17:59;97308.53;;;7.95;29.59
50977;BME280;36992;48.200;12.418;2023-04-04T12:20:26;97309.63;;;7.99;28.84
50977;BME280;36992;48.200;12.418;2023-04-04T12:22:53;97314.47;;;8.02;29.58
50977;BME280;36992;48.200;12.418;2023-04-04T12:25:22;97309.38;;;8.06;29.93
50977;BME280;36992;48.200;12.418;2023-04-04T12:27:50;97302.69;;;8.08;29.93
50977;BME280;36992;48.200;12.418;2023-04-04T12:30:18;97303.53;;;8.14;29.80
50977;BME280;36992;48.200;12.418;2023-04-04T12:32:46;97306.78;;;8.21;29.83
50977;BME280;36992;48.200;12.418;2023-04-04T12:35:13;97307.34;;;8.29;30.76
50977;BME280;36992;48.200;12.418;2023-04-04T12:37:55;97302.84;;;8.45;31.55
50977;BME280;36992;48.200;12.418;2023-04-04T12:40:28;97301.25;;;8.49;29.81
50977;BME280;36992;48.200;12.418;2023-04-04T12:42:54;97291.59;;;8.48;28.59
50977;BME280;36992;48.200;12.418;2023-04-04T12:45:21;97295.38;;;8.52;29.06
50977;BME280;36992;48.200;12.418;2023-04-04T12:47:51;97297.56;;;8.60;29.97
50977;BME280;36992;48.200;12.418;2023-04-04T12:50:20;97286.53;;;8.62;29.02
50977;BME280;36992;48.200;12.418;2023-04-04T12:52:50;97282.00;;;8.73;29.64
50977;BME280;36992;48.200;12.418;2023-04-04T12:55:19;97282.00;;;8.78;28.13
50977;BME280;36992;48.200;12.418;2023-04-04T12:57:48;97284.44;;;8.90;29.13
50977;BME280;36992;48.200;12.418;2023-04-04T13:00:18;97281.78;;;8.95;28.66
50977;BME280;36992;48.200;12.418;2023-04-04T13:02:48;97287.13;;;9.06;29.18
50977;BME280;36992;48.200;12.418;2023-04-04T13:05:15;97279.34;;;9.09;28.63